KMMK

Meriden Markham Municipal Airport

Meriden, Connecticut, USA
METAR KMMK 181253Z AUTO 33014G24KT 10SM CLR M04/M14 A2993 RMK AO2 PK WND 33029/1204 SLP136 T10441139
Observed Flight Rules
Dec-18 @ 12:53 UTC (25 minutes ago) Visual Flight Rules
Wind Visibility Clouds
330° at 14 knots
 Gusting to 24 knots
10 miles
  • Clear skies
Temperatures Readings
Current -4°C / 25°F
Dewpoint -14°C / 7°F
Humidity 46%
Altimeter 29.93" Hg
Pressure 1013.6 hPa
Elevation 31
METAR KMMK 181253Z AUTO 33014G24KT 10SM CLR M04/M14 A2993 RMK AO2 PK WND 33029/1204 SLP136 T10441139
Observed Flight Rules
Dec-18 @ 12:53 UTC
(25 minutes ago)
VFR
Wind Visibility
330° at 14 knots
 Gusting to 24 knots
10 miles
Clouds
  • Clear skies
Temperature Dewpoint
-4°C / 25°F -14°C / 7°F
Humidity Altimeter Pressure
46% 29.93" Hg 1013.6 hPa